createdAt,value
2018-02-08T00:01:43.046Z,95688.05
2018-02-08T00:04:10.734Z,95684.52
2018-02-08T00:06:38.320Z,95685.42
2018-02-08T00:09:06.235Z,95672.44
2018-02-08T00:11:33.828Z,95680.56
2018-02-08T00:14:01.434Z,95676.84
2018-02-08T00:16:29.042Z,95679.51
2018-02-08T00:18:56.612Z,95674.89
2018-02-08T00:21:24.208Z,95679.77
2018-02-08T00:23:51.787Z,95674.71
2018-02-08T00:26:19.345Z,95670.78
2018-02-08T00:28:46.978Z,95675.95
2018-02-08T00:31:14.640Z,95674.98
2018-02-08T00:33:42.228Z,95675.98
2018-02-08T00:36:10.052Z,95675.14
2018-02-08T00:38:37.628Z,95677.95
2018-02-08T00:41:05.338Z,95680.53
2018-02-08T00:43:32.942Z,95681.50
2018-02-08T00:46:00.503Z,95679.08
2018-02-08T00:48:28.061Z,95685.80
2018-02-08T00:50:55.654Z,95688.18
2018-02-08T00:53:23.276Z,95683.54
2018-02-08T00:55:50.862Z,95687.80
2018-02-08T00:58:18.478Z,95690.98
2018-02-08T01:00:46.096Z,95687.94
2018-02-08T01:03:13.652Z,95691.77
2018-02-08T01:05:41.281Z,95693.02
2018-02-08T01:08:08.959Z,95682.11
2018-02-08T01:10:36.544Z,95688.85
2018-02-08T01:13:04.148Z,95684.09
2018-02-08T01:15:31.791Z,95686.09
2018-02-08T01:17:59.352Z,95692.54
2018-02-08T01:20:26.934Z,95692.97
2018-02-08T01:22:54.494Z,95698.91
2018-02-08T01:25:22.072Z,95698.14
2018-02-08T01:27:49.656Z,95694.16
2018-02-08T01:30:17.305Z,95693.52
2018-02-08T01:32:44.882Z,95695.73
2018-02-08T01:35:12.810Z,95697.80
2018-02-08T01:37:40.393Z,95691.73
2018-02-08T01:40:07.988Z,95695.58
2018-02-08T01:42:35.580Z,95697.34
2018-02-08T01:45:03.359Z,95695.79
2018-02-08T01:47:30.948Z,95699.17
2018-02-08T01:49:58.505Z,95703.94
2018-02-08T01:52:26.126Z,95699.38
2018-02-08T01:54:53.729Z,95707.77
2018-02-08T01:57:21.314Z,95705.91
2018-02-08T01:59:48.893Z,95710.18
2018-02-08T02:02:16.514Z,95709.20
2018-02-08T02:04:44.069Z,95704.92
2018-02-08T02:07:12.141Z,95708.67
2018-02-08T02:09:39.768Z,95707.78
2018-02-08T02:12:07.384Z,95706.25
2018-02-08T02:14:34.983Z,95705.73
2018-02-08T02:17:02.596Z,95703.77
2018-02-08T02:19:30.185Z,95702.68
2018-02-08T02:21:57.776Z,95698.28
2018-02-08T02:24:25.406Z,95700.92
2018-02-08T02:26:53.006Z,95701.20
2018-02-08T02:29:20.550Z,95696.98
2018-02-08T02:31:48.144Z,95701.45
2018-02-08T02:34:15.754Z,95704.13
2018-02-08T02:36:43.329Z,95712.10
2018-02-08T02:39:10.907Z,95707.06
2018-02-08T02:41:38.499Z,95704.94
2018-02-08T02:44:06.134Z,95709.85
2018-02-08T02:46:33.700Z,95701.54
2018-02-08T02:49:01.270Z,95702.61
2018-02-08T02:51:28.910Z,95703.03
2018-02-08T02:53:56.694Z,95702.98
2018-02-08T02:56:24.284Z,95700.17
2018-02-08T02:58:51.875Z,95705.59
2018-02-08T03:01:19.451Z,95707.67
2018-02-08T03:03:47.370Z,95704.31
2018-02-08T03:06:15.350Z,95708.91
2018-02-08T03:08:43.699Z,95705.24
2018-02-08T03:11:11.966Z,95705.02
2018-02-08T03:13:39.634Z,95712.48
2018-02-08T03:16:07.250Z,95705.02
2018-02-08T03:18:37.159Z,95709.59
2018-02-08T03:21:04.745Z,95714.70
2018-02-08T03:23:35.228Z,95710.03
2018-02-08T03:26:02.902Z,95722.61
2018-02-08T03:31:17.217Z,95720.62
2018-02-08T03:33:45.028Z,95730.92
2018-02-08T03:36:12.625Z,95723.95
2018-02-08T03:38:40.306Z,95729.86
2018-02-08T03:41:09.215Z,95729.18
2018-02-08T03:43:36.953Z,95727.44
2018-02-08T03:46:04.523Z,95737.58
2018-02-08T03:48:32.234Z,95731.88
2018-02-08T03:50:59.813Z,95738.02
2018-02-08T03:53:27.387Z,95745.84
2018-02-08T03:55:54.997Z,95745.69
2018-02-08T03:58:22.568Z,95745.32
2018-02-08T04:00:50.154Z,95751.43
2018-02-08T04:03:17.989Z,95752.83
2018-02-08T04:05:45.572Z,95752.92
2018-02-08T04:08:13.161Z,95759.11
2018-02-08T04:10:40.856Z,95752.19
2018-02-08T04:13:10.147Z,95749.03
2018-02-08T04:15:37.747Z,95754.14
2018-02-08T04:18:05.687Z,95753.73
2018-02-08T04:20:33.300Z,95759.20
2018-02-08T04:23:00.837Z,95764.27
2018-02-08T04:25:28.431Z,95765.17
2018-02-08T04:27:55.980Z,95772.23
2018-02-08T04:30:23.727Z,95770.11
2018-02-08T04:32:51.325Z,95774.66
2018-02-08T04:35:18.888Z,95777.69
2018-02-08T04:37:46.461Z,95776.70
2018-02-08T04:40:25.830Z,95775.86
2018-02-08T04:43:05.210Z,95779.16
2018-02-08T04:45:44.547Z,95779.59
2018-02-08T04:48:12.095Z,95780.92
2018-02-08T04:50:39.701Z,95784.77
2018-02-08T04:53:07.598Z,95785.11
2018-02-08T04:55:35.420Z,95789.03
2018-02-08T04:58:03.124Z,95787.03
2018-02-08T05:00:30.679Z,95791.43
2018-02-08T05:02:58.309Z,95794.86
2018-02-08T05:05:26.969Z,95797.70
2018-02-08T05:07:54.576Z,95808.08
2018-02-08T05:10:22.159Z,95804.92
2018-02-08T05:12:49.750Z,95809.13
2018-02-08T05:15:17.421Z,95804.44
2018-02-08T05:17:45.006Z,95803.66
2018-02-08T05:20:12.619Z,95804.99
2018-02-08T05:22:40.190Z,95804.14
2018-02-08T05:25:07.821Z,95805.69
2018-02-08T05:27:35.407Z,95808.22
2018-02-08T05:30:02.953Z,95811.24
2018-02-08T05:32:30.512Z,95816.33
2018-02-08T05:34:58.087Z,95812.97
2018-02-08T05:37:26.025Z,95813.33
2018-02-08T05:39:53.636Z,95816.03
2018-02-08T05:42:21.232Z,95818.14
2018-02-08T05:44:48.804Z,95822.68
2018-02-08T05:47:16.397Z,95822.70
2018-02-08T05:49:43.973Z,95829.41
2018-02-08T05:52:11.578Z,95833.86
2018-02-08T05:54:39.245Z,95838.83
2018-02-08T05:57:07.148Z,95834.43
2018-02-08T05:59:35.044Z,95842.03
2018-02-08T06:02:02.624Z,95843.94
2018-02-08T06:04:30.191Z,95847.37
2018-02-08T06:06:57.774Z,95845.52
2018-02-08T06:09:25.587Z,95849.83
2018-02-08T06:11:53.157Z,95854.11
2018-02-08T06:14:20.726Z,95855.02
2018-02-08T06:16:48.306Z,95855.84
2018-02-08T06:19:15.969Z,95854.34
2018-02-08T06:21:43.534Z,95858.95
2018-02-08T06:24:11.106Z,95866.14
2018-02-08T06:26:38.756Z,95869.71
2018-02-08T06:29:06.537Z,95870.89
2018-02-08T06:31:34.228Z,95878.86
2018-02-08T06:34:01.801Z,95880.64
2018-02-08T06:36:29.351Z,95892.74
2018-02-08T06:38:56.909Z,95891.81
2018-02-08T06:41:24.810Z,95893.16
2018-02-08T06:43:52.782Z,95890.16
2018-02-08T06:46:20.348Z,95889.23
2018-02-08T06:48:47.923Z,95897.23
2018-02-08T06:51:15.505Z,95900.70
2018-02-08T06:53:43.110Z,95902.83
2018-02-08T06:56:10.724Z,95897.77
2018-02-08T06:58:38.339Z,95900.84
2018-02-08T07:01:05.905Z,95903.27
2018-02-08T07:03:33.592Z,95908.34
2018-02-08T07:06:01.152Z,95908.75
2018-02-08T07:08:28.728Z,95910.49
2018-02-08T07:10:56.321Z,95910.22
2018-02-08T07:13:23.916Z,95916.19
2018-02-08T07:15:51.514Z,95917.14
2018-02-08T07:18:19.170Z,95919.37
2018-02-08T07:20:46.744Z,95920.15
2018-02-08T07:23:14.318Z,95917.47
2018-02-08T07:25:41.934Z,95925.97
2018-02-08T07:28:11.158Z,95926.22
2018-02-08T07:30:38.980Z,95931.42
2018-02-08T07:33:08.320Z,95932.98
2018-02-08T07:35:36.106Z,95933.46
2018-02-08T07:38:03.689Z,95936.33
2018-02-08T07:40:31.291Z,95934.16
2018-02-08T07:42:59.426Z,95932.77
2018-02-08T07:45:27.284Z,95937.24
2018-02-08T07:47:54.858Z,95939.14
2018-02-08T07:50:22.522Z,95943.38
2018-02-08T07:52:50.113Z,95953.19
2018-02-08T07:55:18.083Z,95956.78
2018-02-08T07:57:45.817Z,95960.33
2018-02-08T08:00:13.417Z,95956.41
2018-02-08T08:02:41.024Z,95962.31
2018-02-08T08:05:08.596Z,95959.77
2018-02-08T08:07:36.260Z,95961.66
2018-02-08T08:10:03.852Z,95958.88
2018-02-08T08:12:31.563Z,95958.44
2018-02-08T08:14:59.122Z,95963.42
2018-02-08T08:17:28.135Z,95964.45
2018-02-08T08:19:55.729Z,95963.12
2018-02-08T08:22:23.293Z,95965.57
2018-02-08T08:24:50.893Z,95969.35
2018-02-08T08:27:18.503Z,95971.09
2018-02-08T08:29:46.129Z,95970.20
2018-02-08T08:32:13.679Z,95975.31
2018-02-08T08:34:41.495Z,95968.80
2018-02-08T08:37:09.937Z,95976.94
2018-02-08T08:39:37.498Z,95971.03
2018-02-08T08:42:05.123Z,95972.31
2018-02-08T08:44:32.729Z,95976.90
2018-02-08T08:47:00.284Z,95980.20
2018-02-08T08:49:29.186Z,95981.53
2018-02-08T08:51:56.748Z,95986.92
2018-02-08T08:54:25.626Z,95985.39
2018-02-08T08:56:53.238Z,95994.72
2018-02-08T08:59:21.771Z,95996.16
2018-02-08T09:01:49.385Z,95995.05
2018-02-08T09:04:16.957Z,95994.02
2018-02-08T09:06:44.581Z,96002.46
2018-02-08T09:09:12.477Z,95998.09
2018-02-08T09:11:40.045Z,95997.12
2018-02-08T09:14:07.612Z,95999.42
2018-02-08T09:16:36.250Z,96007.70
2018-02-08T09:19:04.325Z,96011.38
2018-02-08T09:21:33.096Z,96009.59
2018-02-08T09:24:01.208Z,96014.27
2018-02-08T09:26:28.803Z,96014.64
2018-02-08T09:28:56.362Z,96012.19
2018-02-08T09:31:24.727Z,96015.95
2018-02-08T09:33:52.288Z,96015.97
2018-02-08T09:36:19.862Z,96015.75
2018-02-08T09:38:47.429Z,96015.38
2018-02-08T09:41:15.229Z,96014.58
2018-02-08T09:43:42.831Z,96021.86
2018-02-08T09:46:10.436Z,96019.33
2018-02-08T09:48:38.069Z,96023.97
2018-02-08T09:51:05.967Z,96028.97
2018-02-08T09:53:33.570Z,96022.22
2018-02-08T09:56:01.177Z,96024.58
2018-02-08T09:58:28.807Z,96023.73
2018-02-08T10:00:56.420Z,96026.34
2018-02-08T10:03:24.793Z,96021.62
2018-02-08T10:05:52.396Z,96026.44
2018-02-08T10:08:20.059Z,96022.97
2018-02-08T10:10:47.704Z,96023.41
2018-02-08T10:13:15.302Z,96019.09
2018-02-08T10:15:42.868Z,96020.91
2018-02-08T10:18:10.550Z,96022.76
2018-02-08T10:20:38.112Z,96020.45
2018-02-08T10:23:05.698Z,96015.36
2018-02-08T10:25:33.541Z,96022.81
2018-02-08T10:28:01.083Z,96018.72
2018-02-08T10:30:28.665Z,96014.08
2018-02-08T10:32:56.261Z,96013.28
2018-02-08T10:35:23.854Z,96015.39
2018-02-08T10:37:51.530Z,96010.92
2018-02-08T10:40:19.115Z,96012.42
2018-02-08T10:42:48.289Z,96010.15
2018-02-08T10:45:16.698Z,96009.41
2018-02-08T10:47:44.318Z,96009.91
2018-02-08T10:50:12.024Z,96015.11
2018-02-08T10:52:39.596Z,96014.84
2018-02-08T10:55:07.605Z,96016.81
2018-02-08T10:57:35.219Z,96014.36
2018-02-08T11:00:02.993Z,96017.47
2018-02-08T11:02:32.055Z,96023.19
2018-02-08T11:04:59.616Z,96015.94
2018-02-08T11:07:27.606Z,96019.69
2018-02-08T11:12:39.226Z,96024.55
2018-02-08T11:15:07.253Z,96025.00
2018-02-08T11:17:36.762Z,96020.72
2018-02-08T11:20:06.502Z,96028.42
2018-02-08T11:22:34.361Z,96022.80
2018-02-08T11:25:01.956Z,96014.26
2018-02-08T11:27:30.698Z,96022.22
2018-02-08T11:29:59.047Z,96023.98
2018-02-08T11:32:26.634Z,96025.36
2018-02-08T11:34:54.260Z,96023.78
2018-02-08T11:37:26.678Z,96022.67
2018-02-08T11:39:54.297Z,96026.55
2018-02-08T11:42:21.921Z,96028.38
2018-02-08T11:44:52.239Z,96030.69
2018-02-08T11:47:20.968Z,96022.98
2018-02-08T11:49:48.870Z,96024.99
2018-02-08T11:52:16.480Z,96028.05
2018-02-08T11:54:44.185Z,96029.52
2018-02-08T11:57:11.816Z,96027.50
2018-02-08T11:59:49.836Z,96031.27
2018-02-08T12:02:17.935Z,96034.97
2018-02-08T12:04:45.562Z,96034.84
2018-02-08T12:07:13.333Z,96037.50
2018-02-08T12:09:40.960Z,96032.60
2018-02-08T12:12:08.903Z,96034.83
2018-02-08T12:14:36.539Z,96033.27
2018-02-08T12:17:04.122Z,96032.70
2018-02-08T12:19:31.696Z,96037.35
2018-02-08T12:21:59.860Z,96034.47
2018-02-08T12:24:27.861Z,96032.84
2018-02-08T12:26:55.440Z,96032.17
2018-02-08T12:29:23.760Z,96027.88
2018-02-08T12:31:51.495Z,96027.81
2018-02-08T12:34:19.082Z,96033.23
2018-02-08T12:36:46.708Z,96030.52
2018-02-08T12:39:14.253Z,96026.42
2018-02-08T12:41:41.854Z,96034.47
2018-02-08T12:44:09.641Z,96030.75
2018-02-08T12:46:37.300Z,96037.48
2018-02-08T12:49:05.124Z,96041.09
2018-02-08T12:51:33.400Z,96040.94
2018-02-08T12:54:01.042Z,96028.82
2018-02-08T12:56:28.720Z,96029.61
2018-02-08T12:58:57.214Z,96032.97
2018-02-08T13:01:26.092Z,96030.10
2018-02-08T13:03:54.330Z,96030.22
2018-02-08T13:06:22.738Z,96029.99
2018-02-08T13:08:50.406Z,96027.05
2018-02-08T13:11:18.911Z,96023.53
2018-02-08T13:13:46.523Z,96026.26
2018-02-08T13:16:14.422Z,96028.82
2018-02-08T13:18:41.995Z,96025.28
2018-02-08T13:21:10.516Z,96029.66
2018-02-08T13:23:38.579Z,96030.51
2018-02-08T13:26:06.340Z,96027.73
2018-02-08T13:28:35.421Z,96031.79
2018-02-08T13:31:04.738Z,96031.77
2018-02-08T13:33:33.684Z,96040.11
2018-02-08T13:36:01.325Z,96041.73
2018-02-08T13:38:28.880Z,96039.83
2018-02-08T13:40:57.258Z,96041.09
2018-02-08T13:43:24.793Z,96046.35
2018-02-08T13:45:52.430Z,96036.30
2018-02-08T13:48:34.856Z,96037.08
2018-02-08T13:54:08.509Z,96016.47
2018-02-08T13:59:59.109Z,96035.06
2018-02-08T14:02:26.651Z,96036.66
2018-02-08T14:04:54.147Z,96036.05
2018-02-08T14:07:22.005Z,96039.42
2018-02-08T14:09:49.653Z,96037.20
2018-02-08T14:12:17.206Z,96038.40
2018-02-08T14:14:44.775Z,96039.84
2018-02-08T14:17:12.641Z,96049.34
2018-02-08T14:19:40.202Z,96048.50
2018-02-08T14:22:07.767Z,96048.57
2018-02-08T14:24:35.355Z,96043.97
2018-02-08T14:27:03.302Z,96047.50
2018-02-08T14:29:30.868Z,96043.36
2018-02-08T14:31:58.450Z,96054.91
2018-02-08T14:34:26.116Z,96048.19
2018-02-08T14:36:53.879Z,96044.69
2018-02-08T14:39:22.026Z,96047.30
2018-02-08T14:44:39.862Z,96054.31
2018-02-08T14:47:07.427Z,96052.23
2018-02-08T14:49:35.801Z,96051.24
2018-02-08T14:52:03.591Z,96053.48
2018-02-08T14:54:31.185Z,96052.58
2018-02-08T14:56:58.747Z,96057.21
2018-02-08T14:59:26.504Z,96052.73
2018-02-08T15:01:54.061Z,96053.17
2018-02-08T15:04:21.758Z,96054.19
2018-02-08T15:06:49.389Z,96052.92
2018-02-08T15:09:19.481Z,96052.39
2018-02-08T15:11:49.890Z,96055.38
2018-02-08T15:14:17.725Z,96049.23
2018-02-08T15:16:45.309Z,96057.11
2018-02-08T15:19:12.891Z,96056.84
2018-02-08T15:21:40.871Z,96051.08
2018-02-08T15:24:10.485Z,96056.89
2018-02-08T15:26:38.200Z,96056.82
2018-02-08T15:29:06.101Z,96052.56
2018-02-08T15:31:35.027Z,96056.13
2018-02-08T15:34:02.619Z,96059.38
2018-02-08T15:36:30.198Z,96057.72
2018-02-08T15:38:57.862Z,96059.90
2018-02-08T15:41:26.057Z,96061.25
2018-02-08T15:43:53.789Z,96066.28
2018-02-08T15:46:21.412Z,96070.67
2018-02-08T15:48:48.957Z,96071.61
2018-02-08T15:51:17.804Z,96071.27
2018-02-08T15:53:45.409Z,96075.95
2018-02-08T15:56:12.952Z,96080.47
2018-02-08T15:58:40.581Z,96079.96
2018-02-08T16:01:08.161Z,96088.80
2018-02-08T16:03:35.879Z,96090.75
2018-02-08T16:06:03.459Z,96092.23
2018-02-08T16:08:31.044Z,96089.80
2018-02-08T16:10:58.608Z,96092.73
2018-02-08T16:13:26.506Z,96092.69
2018-02-08T16:15:54.107Z,96092.47
2018-02-08T16:18:21.887Z,96097.08
2018-02-08T16:20:49.486Z,96096.32
2018-02-08T16:23:17.264Z,96101.52
2018-02-08T16:25:44.921Z,96106.21
2018-02-08T16:28:12.541Z,96107.47
2018-02-08T16:30:40.092Z,96105.33
2018-02-08T16:33:07.783Z,96101.73
2018-02-08T16:35:35.753Z,96103.13
2018-02-08T16:38:03.314Z,96102.86
2018-02-08T16:40:31.934Z,96108.40
2018-02-08T16:42:59.559Z,96112.55
2018-02-08T16:45:27.147Z,96109.53
2018-02-08T16:47:54.739Z,96112.27
2018-02-08T16:50:22.348Z,96116.48
2018-02-08T16:52:49.930Z,96116.19
2018-02-08T16:55:17.897Z,96118.23
2018-02-08T16:57:45.496Z,96118.70
2018-02-08T17:00:13.236Z,96112.77
2018-02-08T17:02:40.820Z,96121.80
2018-02-08T17:05:08.453Z,96116.19
2018-02-08T17:07:35.998Z,96125.45
2018-02-08T17:10:03.639Z,96122.16
2018-02-08T17:12:31.184Z,96126.34
2018-02-08T17:14:58.745Z,96131.76
2018-02-08T17:17:27.400Z,96132.78
2018-02-08T17:19:54.995Z,96135.41
2018-02-08T17:22:22.977Z,96148.87
2018-02-08T17:24:50.571Z,96150.66
2018-02-08T17:27:21.433Z,96144.66
2018-02-08T17:29:50.543Z,96155.59
2018-02-08T17:32:18.171Z,96154.31
2018-02-08T17:34:45.756Z,96158.81
2018-02-08T17:37:13.350Z,96158.38
2018-02-08T17:39:40.913Z,96156.48
2018-02-08T17:42:08.857Z,96168.89
2018-02-08T17:44:36.439Z,96168.55
2018-02-08T17:47:04.028Z,96173.58
2018-02-08T17:49:32.153Z,96177.30
2018-02-08T17:51:59.744Z,96171.42
2018-02-08T17:54:27.334Z,96176.94
2018-02-08T17:56:54.915Z,96178.55
2018-02-08T17:59:22.533Z,96179.49
2018-02-08T18:01:50.138Z,96179.14
2018-02-08T18:04:17.772Z,96184.45
2018-02-08T18:06:45.505Z,96180.24
2018-02-08T18:09:13.582Z,96185.72
2018-02-08T18:11:41.569Z,96187.81
2018-02-08T18:14:09.308Z,96184.25
2018-02-08T18:16:36.882Z,96183.97
2018-02-08T18:19:04.720Z,96185.29
2018-02-08T18:21:32.384Z,96185.69
2018-02-08T18:23:59.942Z,96190.20
2018-02-08T18:26:27.933Z,96189.92
2018-02-08T18:28:55.541Z,96194.95
2018-02-08T18:31:23.188Z,96197.88
2018-02-08T18:33:51.079Z,96196.22
2018-02-08T18:36:18.656Z,96195.86
2018-02-08T18:38:46.233Z,96200.97
2018-02-08T18:41:14.046Z,96196.83
2018-02-08T18:43:41.649Z,96196.84
2018-02-08T18:46:10.300Z,96196.83
2018-02-08T18:48:37.916Z,96196.72
2018-02-08T18:51:05.853Z,96196.41
2018-02-08T18:53:33.442Z,96200.63
2018-02-08T18:56:01.065Z,96205.72
2018-02-08T18:58:28.630Z,96210.85
2018-02-08T19:00:56.194Z,96204.35
2018-02-08T19:03:26.053Z,96213.17
2018-02-08T19:05:53.787Z,96205.67
2018-02-08T19:08:23.460Z,96210.12
2018-02-08T19:10:53.817Z,96213.31
2018-02-08T19:13:21.643Z,96211.42
2018-02-08T19:15:49.369Z,96219.09
2018-02-08T19:18:17.090Z,96206.16
2018-02-08T19:20:45.046Z,96208.32
2018-02-08T19:23:13.052Z,96209.17
2018-02-08T19:25:40.725Z,96207.91
2018-02-08T19:28:08.285Z,96208.89
2018-02-08T19:30:35.931Z,96205.18
2018-02-08T19:33:04.242Z,96209.95
2018-02-08T19:35:32.526Z,96208.86
2018-02-08T19:38:02.776Z,96212.29
2018-02-08T19:40:30.489Z,96209.54
2018-02-08T19:42:58.068Z,96209.27
2018-02-08T19:45:25.851Z,96204.63
2018-02-08T19:47:55.825Z,96205.39
2018-02-08T19:50:23.631Z,96211.91
2018-02-08T19:52:51.239Z,96208.67
2018-02-08T19:55:19.891Z,96204.66
2018-02-08T19:57:47.460Z,96203.42
2018-02-08T20:00:15.053Z,96205.33
2018-02-08T20:02:42.676Z,96203.63
2018-02-08T20:05:10.454Z,96207.84
2018-02-08T20:07:38.340Z,96210.87
2018-02-08T20:10:05.909Z,96209.83
2018-02-08T20:12:33.479Z,96212.09
2018-02-08T20:15:01.110Z,96211.23
2018-02-08T20:17:28.697Z,96207.81
2018-02-08T20:19:56.265Z,96212.78
2018-02-08T20:22:23.969Z,96218.55
2018-02-08T20:24:51.600Z,96219.87
2018-02-08T20:27:19.232Z,96219.17
2018-02-08T20:29:46.965Z,96222.59
2018-02-08T20:32:14.574Z,96219.02
2018-02-08T20:34:42.159Z,96214.13
2018-02-08T20:37:10.638Z,96215.45
2018-02-08T20:39:38.231Z,96220.06
2018-02-08T20:42:05.821Z,96211.45
2018-02-08T20:44:33.400Z,96217.71
2018-02-08T20:47:01.023Z,96206.47
2018-02-08T20:49:28.725Z,96214.39
2018-02-08T20:51:56.357Z,96217.61
2018-02-08T20:54:24.926Z,96216.68
2018-02-08T20:56:52.490Z,96214.54
2018-02-08T20:59:20.103Z,96216.08
2018-02-08T21:01:47.678Z,96218.64
2018-02-08T21:04:15.771Z,96214.80
2018-02-08T21:06:43.347Z,96212.23
2018-02-08T21:09:11.847Z,96215.59
2018-02-08T21:11:39.518Z,96209.70
2018-02-08T21:14:07.095Z,96210.89
2018-02-08T21:16:34.714Z,96205.08
2018-02-08T21:19:02.284Z,96213.70
2018-02-08T21:21:29.975Z,96215.47
2018-02-08T21:23:57.536Z,96214.83
2018-02-08T21:26:25.671Z,96206.63
2018-02-08T21:28:53.518Z,96207.94
2018-02-08T21:31:21.088Z,96206.89
2018-02-08T21:33:48.736Z,96201.92
2018-02-08T21:36:16.430Z,96204.08
2018-02-08T21:38:44.007Z,96209.91
2018-02-08T21:41:12.303Z,96217.02
2018-02-08T21:43:39.924Z,96219.42
2018-02-08T21:46:07.537Z,96220.94
2018-02-08T21:48:35.108Z,96217.42
2018-02-08T21:51:02.708Z,96217.83
2018-02-08T21:53:30.319Z,96217.06
2018-02-08T21:55:57.905Z,96209.16
2018-02-08T21:58:26.018Z,96211.20
2018-02-08T22:00:53.738Z,96204.72
2018-02-08T22:03:21.391Z,96205.89
2018-02-08T22:05:49.365Z,96201.62
2018-02-08T22:08:16.937Z,96201.40
2018-02-08T22:10:44.523Z,96205.48
2018-02-08T22:13:12.099Z,96206.73
2018-02-08T22:15:39.695Z,96198.34
2018-02-08T22:18:07.305Z,96204.98
2018-02-08T22:20:34.881Z,96200.70
2018-02-08T22:23:02.440Z,96204.53
2018-02-08T22:25:30.061Z,96192.73
2018-02-08T22:27:57.644Z,96197.73
2018-02-08T22:30:25.232Z,96193.16
2018-02-08T22:32:52.843Z,96190.30
2018-02-08T22:35:20.792Z,96189.47
2018-02-08T22:37:48.369Z,96189.01
2018-02-08T22:40:16.030Z,96199.59
2018-02-08T22:42:43.611Z,96197.73
2018-02-08T22:45:11.267Z,96198.63
2018-02-08T22:47:38.831Z,96200.95
2018-02-08T22:50:06.784Z,96197.77
2018-02-08T22:52:34.371Z,96199.13
2018-02-08T22:55:01.987Z,96202.45
2018-02-08T22:57:29.856Z,96201.98
2018-02-08T22:59:57.415Z,96197.84
2018-02-08T23:02:24.990Z,96200.28
2018-02-08T23:04:54.114Z,96191.93
2018-02-08T23:07:23.163Z,96192.56
2018-02-08T23:09:50.876Z,96197.40
2018-02-08T23:12:18.526Z,96195.96
2018-02-08T23:14:46.159Z,96200.23
2018-02-08T23:17:13.722Z,96202.28
2018-02-08T23:19:41.346Z,96205.59
2018-02-08T23:22:08.949Z,96204.74
2018-02-08T23:24:36.507Z,96205.14
2018-02-08T23:27:04.398Z,96206.54
2018-02-08T23:29:32.075Z,96199.41
2018-02-08T23:31:59.675Z,96202.86
2018-02-08T23:34:27.229Z,96198.92
2018-02-08T23:36:54.806Z,96202.92
2018-02-08T23:39:22.998Z,96201.94
2018-02-08T23:41:50.577Z,96203.97
2018-02-08T23:44:18.156Z,96207.44
2018-02-08T23:46:45.777Z,96204.16
2018-02-08T23:49:13.488Z,96200.48
2018-02-08T23:51:44.132Z,96201.06
2018-02-08T23:54:16.201Z,96205.48
2018-02-08T23:56:46.969Z,96206.75
2018-02-08T23:59:14.576Z,96211.38
